Time;durP1;ratioP1;P1;durP2;ratioP2;P2;SDS_P1;SDS_P2;PMS_P1;PMS_P2;Temp;Humidity;BMP_temperature;BMP_pressure;BME280_temperature;BME280_humidity;BME280_pressure;Samples;Min_cycle;Max_cycle;Signal;HPM_P1;HPM_P2
2021/12/20 00:02:09;;;;;;;3.00;1.48;;;14.00;77.50;;;;;;5099470;27;48369;-76
2021/12/20 00:04:36;;;;;;;4.50;1.23;;;14.20;76.90;;;;;;5105461;27;45309;-76
2021/12/20 00:07:04;;;;;;;4.43;1.60;;;14.10;77.30;;;;;;5100517;27;45302;-76
2021/12/20 00:09:31;;;;;;;3.03;1.40;;;13.90;77.20;;;;;;5104801;27;45481;-76
2021/12/20 00:11:58;;;;;;;3.75;1.10;;;13.90;77.80;;;;;;5102755;27;46963;-76
2021/12/20 00:14:25;;;;;;;5.15;1.38;;;13.90;78.80;;;;;;5095929;27;45233;-76
2021/12/20 00:16:51;;;;;;;4.18;1.48;;;13.70;78.40;;;;;;5087519;27;45328;-76
2021/12/20 00:19:18;;;;;;;7.75;1.80;;;13.50;78.90;;;;;;5106419;27;45331;-76
2021/12/20 00:21:45;;;;;;;6.15;1.40;;;13.50;78.90;;;;;;5108371;27;46971;-76
2021/12/20 00:24:13;;;;;;;4.75;1.77;;;13.50;79.70;;;;;;5099332;27;45875;-76
2021/12/20 00:26:40;;;;;;;3.08;1.27;;;13.50;79.10;;;;;;5104985;27;45274;-76
2021/12/20 00:29:06;;;;;;;2.78;1.33;;;13.20;80.50;;;;;;5103133;27;45247;-76
2021/12/20 00:31:33;;;;;;;5.15;1.30;;;13.40;80.30;;;;;;5095816;27;45992;-76
2021/12/20 00:34:00;;;;;;;3.03;1.50;;;13.50;78.80;;;;;;5100773;27;45461;-76
2021/12/20 00:36:29;;;;;;;4.22;1.33;;;13.40;79.10;;;;;;5103634;27;45286;-76
2021/12/20 00:41:53;;;;;;;3.72;1.25;;;13.30;80.10;;;;;;5037270;28;45759;-76
2021/12/20 00:44:20;;;;;;;8.13;1.55;;;13.60;79.40;;;;;;5090725;27;45107;-76
2021/12/20 00:46:47;;;;;;;3.25;1.50;;;13.50;78.30;;;;;;5102187;27;45200;-76
2021/12/20 00:49:14;;;;;;;4.30;1.70;;;13.50;78.80;;;;;;5099235;27;45155;-76
2021/12/20 00:51:40;;;;;;;5.97;1.73;;;13.70;78.50;;;;;;5099904;27;45482;-76
2021/12/20 00:54:07;;;;;;;4.18;1.40;;;13.80;77.90;;;;;;5105369;27;45335;-76
2021/12/20 00:56:34;;;;;;;3.08;1.00;;;14.00;76.50;;;;;;5107592;27;45251;-76
2021/12/20 00:59:03;;;;;;;4.05;1.55;;;13.80;77.50;;;;;;5098987;27;45304;-76
2021/12/20 01:01:29;;;;;;;4.10;1.30;;;13.60;78.20;;;;;;5099010;27;47339;-76
2021/12/20 01:03:56;;;;;;;7.10;1.60;;;13.60;78.40;;;;;;5106894;27;46668;-76
2021/12/20 01:06:23;;;;;;;3.85;1.20;;;13.70;77.40;;;;;;5107782;27;45238;-76
2021/12/20 01:08:51;;;;;;;3.40;1.30;;;13.50;78.40;;;;;;5106813;27;45484;-76
2021/12/20 01:11:22;;;;;;;5.05;1.70;;;13.40;79.20;;;;;;5105986;27;47196;-76
2021/12/20 01:13:49;;;;;;;3.70;1.30;;;13.20;79.30;;;;;;5107277;27;45265;-76
2021/12/20 01:16:18;;;;;;;6.53;1.73;;;12.90;80.50;;;;;;5103399;27;45224;-76
2021/12/20 01:18:45;;;;;;;4.43;1.50;;;13.20;79.50;;;;;;5101643;27;45574;-76
2021/12/20 01:21:13;;;;;;;6.22;1.75;;;13.30;78.50;;;;;;5106851;27;46812;-76
2021/12/20 01:23:39;;;;;;;4.30;1.30;;;13.60;78.00;;;;;;5105002;27;46440;-76
2021/12/20 01:26:07;;;;;;;6.65;1.77;;;13.60;77.00;;;;;;5111071;27;45165;-76
2021/12/20 01:28:34;;;;;;;5.63;1.38;;;13.40;78.40;;;;;;5111389;27;45438;-76
2021/12/20 01:31:01;;;;;;;8.93;1.67;;;13.20;77.80;;;;;;5108822;27;45256;-76
2021/12/20 01:33:29;;;;;;;4.88;1.63;;;13.00;78.70;;;;;;5110343;27;45527;-76
2021/12/20 01:35:58;;;;;;;6.78;1.52;;;13.30;78.80;;;;;;5111384;27;45346;-76
2021/12/20 01:38:25;;;;;;;5.72;1.77;;;13.20;77.60;;;;;;5111921;27;45489;-76
2021/12/20 01:40:52;;;;;;;5.65;1.67;;;13.20;79.10;;;;;;5108998;27;45470;-76
2021/12/20 01:43:19;;;;;;;3.78;1.70;;;12.80;79.50;;;;;;5110539;27;45362;-76
2021/12/20 01:45:49;;;;;;;6.70;1.55;;;12.50;81.30;;;;;;5110999;27;45168;-76
2021/12/20 01:48:19;;;;;;;6.85;1.55;;;12.80;80.90;;;;;;5111136;27;45423;-76
2021/12/20 01:51:13;;;;;;;4.43;1.40;;;12.70;80.30;;;;;;5109789;27;46173;-76
2021/12/20 01:53:41;;;;;;;8.63;1.80;;;13.00;80.60;;;;;;5109850;27;45399;-76
2021/12/20 01:56:09;;;;;;;7.53;1.65;;;13.20;78.50;;;;;;5110337;27;45113;-76
2021/12/20 01:58:36;;;;;;;6.80;1.67;;;13.00;78.80;;;;;;5097739;27;45493;-76
2021/12/20 02:01:22;;;;;;;4.15;1.67;;;13.20;79.20;;;;;;5107879;27;47859;-76
2021/12/20 02:03:56;;;;;;;4.60;1.63;;;13.50;77.30;;;;;;5109971;27;45289;-76
2021/12/20 02:06:30;;;;;;;4.85;1.50;;;13.50;77.10;;;;;;5111492;27;45286;-76
2021/12/20 02:09:00;;;;;;;4.43;1.65;;;13.40;77.30;;;;;;5097536;27;45216;-76
2021/12/20 02:11:27;;;;;;;5.60;1.20;;;13.40;76.20;;;;;;5100451;27;48327;-76
2021/12/20 02:13:54;;;;;;;4.75;1.30;;;13.00;78.50;;;;;;5107962;27;45175;-76
2021/12/20 02:16:21;;;;;;;3.97;1.33;;;13.00;79.60;;;;;;5100342;27;45759;-76
2021/12/20 02:18:49;;;;;;;5.10;1.52;;;13.40;76.50;;;;;;5099267;27;45550;-76
2021/12/20 02:21:18;;;;;;;5.35;1.52;;;13.20;78.00;;;;;;5098561;27;45479;-76
2021/12/20 02:23:46;;;;;;;5.82;1.45;;;13.00;78.90;;;;;;5107616;27;45252;-76
2021/12/20 02:26:16;;;;;;;4.07;1.30;;;13.10;78.60;;;;;;5110683;27;45343;-76
2021/12/20 02:28:46;;;;;;;5.93;1.95;;;13.10;78.70;;;;;;5110812;27;45420;-76
2021/12/20 02:37:19;;;;;;;6.20;1.67;;;13.20;78.20;;;;;;5102093;27;45250;-76
2021/12/20 02:39:47;;;;;;;3.67;1.30;;;12.90;78.60;;;;;;5089878;28;45167;-76
2021/12/20 02:42:18;;;;;;;5.68;1.90;;;12.90;79.10;;;;;;5094750;27;47739;-76
2021/12/20 02:44:52;;;;;;;3.47;1.52;;;12.90;79.80;;;;;;5110192;27;45171;-76
2021/12/20 02:47:28;;;;;;;4.43;1.40;;;13.10;77.70;;;;;;5101732;27;45215;-76
2021/12/20 02:49:56;;;;;;;6.32;1.95;;;13.40;77.10;;;;;;5110834;27;45465;-76
2021/12/20 02:52:25;;;;;;;3.95;1.02;;;13.30;77.20;;;;;;5095188;27;45536;-76
2021/12/20 02:54:52;;;;;;;3.50;1.33;;;13.60;76.40;;;;;;5089601;28;45157;-76
2021/12/20 02:57:20;;;;;;;6.78;1.45;;;13.80;75.10;;;;;;5102305;27;45274;-76
2021/12/20 02:59:47;;;;;;;5.45;1.50;;;13.40;76.80;;;;;;5109039;27;45525;-76
2021/12/20 03:02:14;;;;;;;7.32;1.83;;;13.50;76.60;;;;;;5105651;27;46381;-76
2021/12/20 03:04:41;;;;;;;7.30;1.17;;;13.70;75.20;;;;;;5109634;27;45239;-76
2021/12/20 03:07:12;;;;;;;2.65;0.90;;;13.60;76.00;;;;;;5099712;27;45195;-76
2021/12/20 03:09:48;;;;;;;5.53;1.40;;;13.60;76.20;;;;;;5089444;28;45502;-76
2021/12/20 03:12:15;;;;;;;3.47;1.30;;;13.90;74.90;;;;;;5099130;27;46205;-76
2021/12/20 03:14:45;;;;;;;9.45;1.67;;;13.80;74.90;;;;;;5089404;27;45195;-76
2021/12/20 03:17:12;;;;;;;4.47;1.52;;;13.50;76.10;;;;;;5088706;27;45243;-76
2021/12/20 03:19:39;;;;;;;9.35;1.50;;;13.50;76.10;;;;;;5105710;27;45224;-76
2021/12/20 03:22:07;;;;;;;5.05;1.45;;;13.70;75.40;;;;;;5098261;27;45324;-76
2021/12/20 03:24:35;;;;;;;6.47;1.30;;;13.60;75.00;;;;;;5109152;27;45198;-76
2021/12/20 03:27:03;;;;;;;4.35;1.50;;;13.50;76.20;;;;;;5110109;27;45174;-76
2021/12/20 03:29:30;;;;;;;6.68;1.83;;;13.70;75.40;;;;;;5090736;27;45390;-76
2021/12/20 03:31:57;;;;;;;6.40;1.50;;;13.60;75.20;;;;;;5098607;27;47221;-76
2021/12/20 03:34:24;;;;;;;8.57;1.65;;;13.40;75.70;;;;;;5104005;27;45675;-76
2021/12/20 03:36:51;;;;;;;5.35;1.55;;;13.70;75.40;;;;;;5108919;27;45108;-76
2021/12/20 03:39:18;;;;;;;5.60;1.50;;;13.80;74.50;;;;;;5099232;27;45341;-76
2021/12/20 03:41:45;;;;;;;6.03;1.92;;;13.40;76.10;;;;;;5099044;27;48209;-76
2021/12/20 03:44:13;;;;;;;6.32;1.55;;;13.40;76.30;;;;;;5105528;27;45282;-75
2021/12/20 03:46:41;;;;;;;5.20;1.55;;;13.60;75.60;;;;;;5096282;27;45195;-76
2021/12/20 03:49:09;;;;;;;4.65;1.67;;;13.80;74.60;;;;;;5101761;27;45396;-76
2021/12/20 03:51:36;;;;;;;6.07;1.80;;;13.60;74.40;;;;;;5106850;27;47765;-76
2021/12/20 03:54:03;;;;;;;7.90;1.45;;;13.50;75.80;;;;;;5097073;27;45093;-76
2021/12/20 03:56:30;;;;;;;6.43;1.40;;;13.40;75.60;;;;;;5088985;28;45159;-76
2021/12/20 03:58:57;;;;;;;5.97;1.40;;;13.40;75.40;;;;;;5094534;27;45443;-76
2021/12/20 04:01:26;;;;;;;7.10;1.70;;;13.80;74.50;;;;;;5104951;27;47841;-76
2021/12/20 04:03:53;;;;;;;4.40;1.63;;;13.70;73.40;;;;;;5102989;27;45264;-76
2021/12/20 04:06:20;;;;;;;8.85;1.80;;;13.60;73.80;;;;;;5122990;27;45183;-76
2021/12/20 04:08:48;;;;;;;6.63;1.83;;;13.30;74.10;;;;;;5109698;27;45152;-76
2021/12/20 04:11:15;;;;;;;11.07;2.05;;;13.60;73.60;;;;;;5101571;27;47708;-76
2021/12/20 04:13:42;;;;;;;6.88;1.75;;;13.90;72.90;;;;;;5094938;27;45150;-76
2021/12/20 04:16:09;;;;;;;8.57;1.73;;;14.00;72.80;;;;;;5102238;27;45511;-76
2021/12/20 04:18:38;;;;;;;7.30;1.90;;;14.10;70.80;;;;;;5108399;27;45165;-76
2021/12/20 04:21:05;;;;;;;9.02;1.92;;;14.10;71.00;;;;;;5108893;27;45536;-76
2021/12/20 04:23:32;;;;;;;7.80;2.05;;;14.00;70.20;;;;;;5091508;27;45861;-76
2021/12/20 04:25:58;;;;;;;7.45;1.63;;;13.80;72.40;;;;;;5092494;27;45342;-76
2021/12/20 04:28:25;;;;;;;10.90;2.08;;;14.00;71.10;;;;;;5092405;27;45301;-76
2021/12/20 04:30:52;;;;;;;7.95;1.63;;;14.10;70.10;;;;;;5105897;27;45468;-76
2021/12/20 04:33:19;;;;;;;12.60;2.35;;;14.00;69.80;;;;;;5105881;27;45418;-76
2021/12/20 04:35:48;;;;;;;6.55;1.63;;;14.00;70.30;;;;;;5093646;27;45462;-76
2021/12/20 04:38:15;;;;;;;7.85;1.70;;;14.10;70.50;;;;;;5090023;27;45300;-76
2021/12/20 04:40:42;;;;;;;7.82;1.85;;;14.10;69.90;;;;;;5106015;27;47600;-76
2021/12/20 04:43:09;;;;;;;12.98;1.95;;;13.80;70.70;;;;;;5092959;27;45393;-76
2021/12/20 04:45:36;;;;;;;12.88;2.17;;;13.80;69.90;;;;;;5096769;27;45533;-76
2021/12/20 04:48:04;;;;;;;9.10;1.90;;;13.70;71.50;;;;;;5098063;27;45518;-77
2021/12/20 04:50:31;;;;;;;10.02;2.20;;;13.80;71.30;;;;;;5101853;27;46597;-76
2021/12/20 04:52:59;;;;;;;11.75;2.80;;;13.70;70.30;;;;;;5094952;27;45982;-77
2021/12/20 04:55:27;;;;;;;8.50;2.40;;;13.80;70.00;;;;;;5086834;28;45363;-76
2021/12/20 04:57:54;;;;;;;8.77;2.42;;;13.80;69.40;;;;;;5105196;27;45424;-76
2021/12/20 05:00:25;;;;;;;9.38;2.40;;;14.10;69.00;;;;;;5101967;27;46933;-76
2021/12/20 05:02:52;;;;;;;8.88;2.28;;;14.20;68.70;;;;;;5104724;27;45503;-76
2021/12/20 05:05:20;;;;;;;8.43;1.73;;;14.20;68.40;;;;;;5093660;27;45162;-76
2021/12/20 05:07:48;;;;;;;11.18;1.90;;;14.00;69.10;;;;;;5097785;27;45243;-76
2021/12/20 05:10:26;;;;;;;7.82;1.88;;;14.00;68.90;;;;;;5108303;27;46426;-76
2021/12/20 05:12:54;;;;;;;9.48;1.77;;;14.00;68.50;;;;;;5105912;27;45477;-76
2021/12/20 05:17:57;;;;;;;10.35;2.15;;;13.70;70.70;;;;;;5156723;22;45802;-76
2021/12/20 05:20:25;;;;;;;9.10;2.15;;;13.50;71.60;;;;;;5097004;27;48051;-76
2021/12/20 05:22:53;;;;;;;9.65;1.88;;;13.50;70.40;;;;;;5100583;27;45325;-76
2021/12/20 05:25:21;;;;;;;11.38;1.90;;;13.30;72.40;;;;;;5086754;27;45252;-76
2021/12/20 05:27:48;;;;;;;9.45;1.92;;;13.50;71.50;;;;;;5106405;27;45209;-76
2021/12/20 05:30:16;;;;;;;7.75;1.85;;;13.60;71.60;;;;;;5093404;27;45954;-76
2021/12/20 05:32:43;;;;;;;8.30;2.22;;;13.80;70.60;;;;;;5089221;27;45302;-76
2021/12/20 05:35:14;;;;;;;9.98;2.15;;;13.90;70.10;;;;;;5105930;27;45437;-76
2021/12/20 05:37:41;;;;;;;9.98;2.15;;;13.60;70.50;;;;;;5107217;27;45293;-76
2021/12/20 05:40:11;;;;;;;13.07;2.42;;;13.40;71.40;;;;;;5107026;27;46566;-76
2021/12/20 05:42:39;;;;;;;8.20;2.78;;;13.60;71.30;;;;;;5102859;27;45517;-77
2021/12/20 05:45:07;;;;;;;13.02;2.50;;;13.70;70.90;;;;;;5090797;27;45346;-77
2021/12/20 05:47:34;;;;;;;7.20;1.80;;;13.70;70.20;;;;;;5090100;27;45486;-77
2021/12/20 05:50:01;;;;;;;8.80;2.00;;;13.60;70.40;;;;;;5087346;28;48181;-77
2021/12/20 05:52:28;;;;;;;7.63;2.03;;;13.60;70.40;;;;;;5093524;27;45238;-77
2021/12/20 05:54:55;;;;;;;12.43;2.13;;;13.50;70.80;;;;;;5092938;27;45438;-77
2021/12/20 05:57:22;;;;;;;8.63;2.15;;;13.80;70.00;;;;;;5087331;28;45423;-77
2021/12/20 05:59:50;;;;;;;8.38;1.70;;;13.90;69.30;;;;;;5097355;27;47930;-77
2021/12/20 06:02:17;;;;;;;9.48;2.00;;;13.60;71.20;;;;;;5093368;27;46179;-77
2021/12/20 06:04:48;;;;;;;9.25;1.80;;;13.70;71.10;;;;;;5087711;27;45249;-77
2021/12/20 06:07:15;;;;;;;6.63;1.98;;;13.90;70.70;;;;;;5086995;28;45319;-76
2021/12/20 06:09:42;;;;;;;9.40;1.70;;;14.20;70.00;;;;;;5103525;27;46193;-76
2021/12/20 06:12:10;;;;;;;12.27;2.13;;;14.30;69.20;;;;;;5103026;27;45425;-76
2021/12/20 06:14:37;;;;;;;12.35;2.33;;;14.30;67.80;;;;;;5102450;27;45190;-76
2021/12/20 06:17:05;;;;;;;6.70;1.38;;;13.90;68.40;;;;;;5089200;27;45471;-76
2021/12/20 06:19:32;;;;;;;10.43;2.08;;;13.90;70.50;;;;;;5095103;27;47037;-76
2021/12/20 06:21:59;;;;;;;10.63;1.92;;;14.10;69.20;;;;;;5110844;27;45350;-76
2021/12/20 06:24:26;;;;;;;9.43;2.00;;;14.30;69.50;;;;;;5098685;27;45252;-77
2021/12/20 06:26:53;;;;;;;9.98;2.03;;;14.20;68.50;;;;;;5091497;27;45235;-76
2021/12/20 06:29:20;;;;;;;11.77;2.00;;;14.10;69.30;;;;;;5100746;27;46196;-76
2021/12/20 06:31:47;;;;;;;14.88;2.50;;;14.20;68.80;;;;;;5101116;27;45620;-76
2021/12/20 06:34:15;;;;;;;12.02;1.63;;;13.70;70.10;;;;;;5117091;27;45554;-76
2021/12/20 06:36:42;;;;;;;8.15;2.33;;;13.90;69.80;;;;;;5099589;27;45413;-77
2021/12/20 06:39:09;;;;;;;9.77;1.88;;;14.20;69.60;;;;;;5094678;27;45552;-77
2021/12/20 06:41:36;;;;;;;11.68;2.33;;;14.00;70.10;;;;;;5115825;27;45263;-77
2021/12/20 06:44:05;;;;;;;12.00;2.17;;;14.00;69.90;;;;;;5108617;27;45486;-77
2021/12/20 06:46:33;;;;;;;10.93;1.90;;;13.90;68.30;;;;;;5110318;27;45455;-77
2021/12/20 06:49:00;;;;;;;5.90;1.90;;;13.90;70.50;;;;;;5095127;27;46339;-77
2021/12/20 06:51:28;;;;;;;12.75;1.85;;;13.80;70.50;;;;;;5110087;27;45813;-77
2021/12/20 06:53:55;;;;;;;12.47;2.37;;;14.10;69.70;;;;;;5103948;27;45211;-77
2021/12/20 06:56:22;;;;;;;13.02;2.70;;;14.20;69.30;;;;;;5092971;27;45548;-78
2021/12/20 06:58:53;;;;;;;12.52;2.10;;;14.20;68.20;;;;;;5098044;27;46596;-78
2021/12/20 07:01:20;;;;;;;14.43;2.60;;;13.80;69.20;;;;;;5110153;27;45261;-78
2021/12/20 07:03:46;;;;;;;10.35;2.08;;;13.70;67.80;;;;;;5090870;27;45237;-77
2021/12/20 07:06:14;;;;;;;13.35;1.98;;;13.60;68.80;;;;;;5109666;27;45423;-78
2021/12/20 07:08:42;;;;;;;8.70;2.42;;;13.80;68.50;;;;;;5101728;27;45290;-77
2021/12/20 07:11:09;;;;;;;13.38;2.20;;;13.90;67.20;;;;;;5094794;27;45376;-77
2021/12/20 07:13:37;;;;;;;11.73;2.53;;;13.50;67.70;;;;;;5103327;27;45395;-77
2021/12/20 07:16:04;;;;;;;10.38;2.42;;;13.60;68.80;;;;;;5099528;27;45926;-76
2021/12/20 07:18:31;;;;;;;12.75;2.22;;;13.60;70.70;;;;;;5098306;27;47881;-77
2021/12/20 07:20:58;;;;;;;11.27;2.60;;;14.00;70.30;;;;;;5098131;27;45886;-76
2021/12/20 07:23:25;;;;;;;13.60;2.80;;;14.00;68.40;;;;;;5100609;27;46909;-77
2021/12/20 07:25:53;;;;;;;12.57;2.75;;;13.50;68.90;;;;;;5101253;27;45314;-76
2021/12/20 07:28:20;;;;;;;8.07;2.22;;;13.30;70.50;;;;;;5105042;27;47431;-76
2021/12/20 07:30:48;;;;;;;10.77;2.20;;;13.30;69.60;;;;;;5108243;27;45185;-77
2021/12/20 07:33:16;;;;;;;9.40;2.67;;;13.30;71.00;;;;;;5102142;27;45421;-76
2021/12/20 07:35:44;;;;;;;11.02;2.70;;;13.70;69.80;;;;;;5106522;27;45436;-77
2021/12/20 07:38:13;;;;;;;9.15;2.35;;;13.50;68.90;;;;;;5099964;27;46616;-75
2021/12/20 07:40:43;;;;;;;10.75;2.33;;;13.40;69.60;;;;;;5107498;27;45335;-76
2021/12/20 07:43:12;;;;;;;13.65;2.88;;;13.40;68.80;;;;;;5099734;27;45389;-77
2021/12/20 07:45:39;;;;;;;14.27;2.55;;;13.00;69.80;;;;;;5098684;27;45417;-78
2021/12/20 07:48:05;;;;;;;8.02;2.33;;;13.00;72.20;;;;;;5103112;27;47805;-78
2021/12/20 07:50:32;;;;;;;11.38;2.15;;;13.40;71.50;;;;;;5097603;27;45403;-76
2021/12/20 07:52:59;;;;;;;13.52;2.78;;;13.20;69.70;;;;;;5106611;27;45287;-77
2021/12/20 07:55:26;;;;;;;12.98;2.58;;;13.10;70.00;;;;;;5093616;27;45333;-78
2021/12/20 07:57:53;;;;;;;12.20;2.38;;;13.10;71.00;;;;;;5092586;27;47210;-77
2021/12/20 08:00:21;;;;;;;18.83;3.15;;;13.50;70.60;;;;;;5096579;27;45206;-77
2021/12/20 08:02:48;;;;;;;14.73;2.65;;;13.70;69.80;;;;;;5103803;27;45813;-77
2021/12/20 08:05:15;;;;;;;10.60;2.25;;;13.90;68.90;;;;;;5093029;27;45484;-77
2021/12/20 08:07:42;;;;;;;9.77;2.00;;;14.00;68.70;;;;;;5097671;27;46005;-75
2021/12/20 08:10:11;;;;;;;10.55;2.38;;;14.10;68.40;;;;;;5100501;27;45236;-76
2021/12/20 08:12:37;;;;;;;14.05;2.47;;;14.20;68.00;;;;;;5096436;27;45396;-75
2021/12/20 08:15:05;;;;;;;21.38;3.33;;;14.30;68.00;;;;;;5100005;27;45558;-77
2021/12/20 08:17:33;;;;;;;10.57;2.35;;;14.20;67.60;;;;;;5097297;27;46616;-77
2021/12/20 08:20:00;;;;;;;9.52;2.33;;;14.20;67.30;;;;;;5106874;27;45686;-77
2021/12/20 08:22:27;;;;;;;14.70;2.55;;;14.20;66.60;;;;;;5093815;27;45262;-77
2021/12/20 08:24:54;;;;;;;14.68;2.78;;;14.10;66.80;;;;;;5107814;27;45353;-77
2021/12/20 08:27:20;;;;;;;13.15;2.80;;;14.00;67.30;;;;;;5107897;27;45746;-74
2021/12/20 08:29:47;;;;;;;14.35;2.97;;;13.90;66.50;;;;;;5090326;27;45191;-77
2021/12/20 08:32:14;;;;;;;9.60;2.53;;;13.80;68.20;;;;;;5097852;27;45288;-78
2021/12/20 08:34:42;;;;;;;9.95;2.15;;;14.00;67.90;;;;;;5105996;27;45347;-78
2021/12/20 08:37:09;;;;;;;10.82;2.55;;;14.10;68.00;;;;;;5087777;28;46355;-78
2021/12/20 08:39:36;;;;;;;11.90;2.60;;;14.00;67.60;;;;;;5087215;28;45220;-77
2021/12/20 08:42:04;;;;;;;13.00;2.25;;;14.10;67.70;;;;;;5088220;28;45183;-77
2021/12/20 08:44:32;;;;;;;13.27;2.78;;;14.20;66.40;;;;;;5088154;28;45401;-76
2021/12/20 08:46:59;;;;;;;7.97;2.28;;;13.90;68.50;;;;;;5098380;27;45211;-76
2021/12/20 08:49:26;;;;;;;11.88;2.50;;;14.10;68.00;;;;;;5100737;27;45200;-76
2021/12/20 08:51:56;;;;;;;12.77;3.03;;;14.10;67.40;;;;;;5091360;27;45411;-76
2021/12/20 08:54:24;;;;;;;14.07;2.63;;;14.10;67.60;;;;;;5100216;27;45310;-76
2021/12/20 08:56:52;;;;;;;18.85;3.47;;;14.20;67.00;;;;;;5105222;27;46582;-76
2021/12/20 08:59:19;;;;;;;11.60;2.97;;;14.10;66.40;;;;;;5087836;27;45859;-76
2021/12/20 09:01:46;;;;;;;15.43;3.15;;;14.20;65.70;;;;;;5094641;27;45323;-76
2021/12/20 09:04:13;;;;;;;14.32;2.92;;;14.10;66.70;;;;;;5089330;27;45387;-76
2021/12/20 09:06:42;;;;;;;16.80;3.30;;;14.10;66.60;;;;;;5090931;27;46130;-76
2021/12/20 09:09:12;;;;;;;14.30;3.05;;;14.20;66.30;;;;;;5094181;27;45235;-76
2021/12/20 09:11:40;;;;;;;16.45;3.72;;;14.10;65.40;;;;;;5099543;27;45229;-76
2021/12/20 09:14:07;;;;;;;15.32;3.03;;;14.00;66.10;;;;;;5105963;27;45168;-76
2021/12/20 09:16:34;;;;;;;14.68;3.35;;;14.00;67.60;;;;;;5100354;27;45270;-76
2021/12/20 09:19:02;;;;;;;23.17;3.60;;;14.00;67.10;;;;;;5097710;27;45318;-76
2021/12/20 09:21:29;;;;;;;16.77;3.92;;;14.10;67.20;;;;;;5104156;27;45529;-76
2021/12/20 09:23:56;;;;;;;14.45;3.75;;;14.10;66.30;;;;;;5088090;27;45176;-76
2021/12/20 09:26:25;;;;;;;18.33;4.10;;;14.10;66.10;;;;;;5089695;27;46527;-76
2021/12/20 09:28:52;;;;;;;23.95;4.97;;;13.70;66.70;;;;;;5102406;27;45229;-76
2021/12/20 09:31:19;;;;;;;20.00;4.03;;;13.40;68.10;;;;;;5099554;27;45370;-76
2021/12/20 09:33:46;;;;;;;15.52;4.82;;;13.40;69.40;;;;;;5096034;27;45411;-76
2021/12/20 09:36:13;;;;;;;14.90;4.00;;;13.50;68.50;;;;;;5099036;27;46195;-79
2021/12/20 09:38:40;;;;;;;18.38;4.55;;;13.30;69.90;;;;;;5101633;27;45178;-79
2021/12/20 09:41:27;;;;;;;18.73;4.30;;;13.20;70.30;;;;;;5105403;27;45207;-80
2021/12/20 09:43:58;;;;;;;16.80;4.25;;;13.20;69.30;;;;;;5101992;27;45408;-80
2021/12/20 09:46:28;;;;;;;16.42;3.88;;;13.60;68.20;;;;;;5093175;27;46625;-80
2021/12/20 09:48:57;;;;;;;22.17;4.57;;;14.00;68.70;;;;;;5111092;27;45211;-80
2021/12/20 09:51:24;;;;;;;20.95;4.35;;;14.10;67.70;;;;;;5110866;27;45447;-80
2021/12/20 09:53:51;;;;;;;20.05;4.45;;;13.80;68.50;;;;;;5108486;27;45362;-80
2021/12/20 09:56:19;;;;;;;13.80;3.42;;;13.60;69.10;;;;;;5097101;27;46218;-80
2021/12/20 09:58:48;;;;;;;15.30;3.80;;;13.90;67.70;;;;;;5108397;27;45593;-80
2021/12/20 10:01:19;;;;;;;15.10;3.92;;;13.60;68.20;;;;;;5103580;27;45368;-80
2021/12/20 10:03:46;;;;;;;18.13;4.30;;;13.60;68.40;;;;;;5102251;27;45262;-80
2021/12/20 10:06:13;;;;;;;24.30;4.05;;;13.50;68.60;;;;;;5103820;27;46721;-80
2021/12/20 10:08:49;;;;;;;14.95;3.92;;;13.50;68.90;;;;;;5102242;27;45550;-80
2021/12/20 10:11:20;;;;;;;22.55;4.35;;;13.60;68.30;;;;;;5106122;27;45357;-80
2021/12/20 10:13:47;;;;;;;11.85;3.28;;;13.50;67.80;;;;;;5102001;27;45818;-80
2021/12/20 10:16:18;;;;;;;20.17;3.38;;;13.60;68.00;;;;;;5103873;27;48840;-80
2021/12/20 10:18:46;;;;;;;13.63;3.50;;;13.50;67.20;;;;;;5109913;27;45195;-79
2021/12/20 10:21:13;;;;;;;12.80;3.35;;;13.70;68.50;;;;;;5103834;27;45233;-80
2021/12/20 10:23:42;;;;;;;12.88;3.65;;;13.70;66.80;;;;;;5100850;27;45390;-79
2021/12/20 10:26:13;;;;;;;14.85;3.35;;;13.60;67.40;;;;;;5099257;27;47436;-80
2021/12/20 10:28:42;;;;;;;19.02;3.90;;;13.40;67.50;;;;;;5104552;27;45700;-80
2021/12/20 10:31:11;;;;;;;15.15;3.20;;;13.50;67.40;;;;;;5106980;27;45313;-79
2021/12/20 10:33:40;;;;;;;13.88;3.67;;;13.40;67.50;;;;;;5102291;27;45307;-80
2021/12/20 10:36:10;;;;;;;14.82;3.25;;;13.50;67.40;;;;;;5098437;27;48292;-79
2021/12/20 10:38:39;;;;;;;23.85;4.72;;;13.40;67.00;;;;;;5107382;27;45254;-79
2021/12/20 10:41:07;;;;;;;22.85;4.28;;;13.30;67.60;;;;;;5101330;27;45199;-80
2021/12/20 10:43:38;;;;;;;15.68;3.13;;;13.30;67.40;;;;;;5100126;27;45193;-79
2021/12/20 10:46:14;;;;;;;16.00;3.63;;;13.30;67.40;;;;;;5102531;27;47552;-79
2021/12/20 10:48:44;;;;;;;15.93;3.72;;;13.10;68.10;;;;;;5102607;27;45523;-78
2021/12/20 10:51:23;;;;;;;16.17;3.65;;;13.30;68.50;;;;;;5098114;27;45409;-79
2021/12/20 10:53:57;;;;;;;19.15;3.78;;;13.40;66.90;;;;;;5102117;27;45417;-79
2021/12/20 10:56:24;;;;;;;14.90;3.58;;;13.30;66.60;;;;;;5088856;27;48030;-78
2021/12/20 10:58:52;;;;;;;16.48;3.78;;;13.50;66.50;;;;;;5089682;27;45175;-79
2021/12/20 11:01:37;;;;;;;12.15;3.15;;;13.40;66.80;;;;;;5097575;27;45148;-80
2021/12/20 11:04:10;;;;;;;14.82;3.15;;;13.30;66.60;;;;;;5103589;27;45259;-79
2021/12/20 11:09:22;;;;;;;13.63;3.50;;;13.10;67.50;;;;;;5097233;27;45612;-80
2021/12/20 11:11:51;;;;;;;18.20;3.42;;;13.10;67.00;;;;;;5107475;27;45331;-80
2021/12/20 11:14:19;;;;;;;20.08;3.00;;;13.40;66.90;;;;;;5105647;27;45338;-80
2021/12/20 11:16:49;;;;;;;20.65;3.40;;;13.40;66.90;;;;;;5095087;27;46597;-80
2021/12/20 11:19:20;;;;;;;17.05;3.50;;;13.20;66.70;;;;;;5107281;27;45286;-78
2021/12/20 11:21:56;;;;;;;12.98;3.03;;;13.30;66.50;;;;;;5098905;27;45108;-78
2021/12/20 11:24:24;;;;;;;17.92;3.63;;;13.30;66.20;;;;;;5101605;27;45278;-79
2021/12/20 11:26:52;;;;;;;19.58;3.25;;;13.30;66.60;;;;;;5095967;27;46463;-78
2021/12/20 11:29:21;;;;;;;14.10;3.28;;;13.20;66.40;;;;;;5107755;27;45471;-75
2021/12/20 11:31:49;;;;;;;15.43;3.25;;;13.20;66.40;;;;;;5097827;27;45331;-77
2021/12/20 11:34:18;;;;;;;13.65;2.75;;;13.20;67.30;;;;;;5101359;27;45375;-75
2021/12/20 11:36:45;;;;;;;18.17;2.90;;;13.30;67.90;;;;;;5099654;27;46452;-75
2021/12/20 11:39:12;;;;;;;20.95;3.05;;;13.30;66.80;;;;;;5107337;27;46198;-76
2021/12/20 11:41:39;;;;;;;11.82;3.35;;;13.30;68.60;;;;;;5101741;27;45444;-76
2021/12/20 11:44:09;;;;;;;16.40;3.80;;;13.30;68.10;;;;;;5107625;27;45299;-76
2021/12/20 11:46:42;;;;;;;16.17;2.72;;;13.30;67.00;;;;;;5101383;27;46167;-76
2021/12/20 11:49:09;;;;;;;18.85;3.25;;;13.30;67.90;;;;;;5104672;27;45542;-76
2021/12/20 11:51:56;;;;;;;10.85;2.70;;;13.40;68.50;;;;;;5096276;27;45237;-76
2021/12/20 11:54:46;;;;;;;15.32;3.80;;;13.40;67.40;;;;;;5095991;27;45859;-75
2021/12/20 11:57:33;;;;;;;19.55;3.08;;;13.80;67.30;;;;;;5095312;27;45698;-75
2021/12/20 12:00:02;;;;;;;15.43;3.28;;;13.50;66.40;;;;;;5105307;27;45329;-75
2021/12/20 12:02:30;;;;;;;16.52;3.33;;;13.30;67.70;;;;;;5103130;27;45393;-75
2021/12/20 12:05:05;;;;;;;13.35;2.38;;;13.30;67.50;;;;;;5099258;27;45298;-75
2021/12/20 12:07:35;;;;;;;13.90;3.00;;;13.40;68.10;;;;;;5096602;27;47661;-75
2021/12/20 12:10:06;;;;;;;12.98;2.53;;;13.20;68.60;;;;;;5102277;27;45179;-75
2021/12/20 12:12:40;;;;;;;10.43;2.60;;;13.20;72.20;;;;;;5103802;27;45461;-73
2021/12/20 12:15:09;;;;;;;9.23;2.20;;;14.50;70.50;;;;;;5095298;27;45294;-73
2021/12/20 12:17:58;;;;;;;6.85;2.03;;;15.30;67.00;;;;;;5100371;27;45724;-73
2021/12/20 12:20:47;;;;;;;10.27;2.00;;;15.70;65.90;;;;;;5105244;27;45324;-73
2021/12/20 12:23:17;;;;;;;8.65;1.70;;;16.00;65.90;;;;;;5098457;27;45184;-73
2021/12/20 12:25:46;;;;;;;6.72;2.00;;;16.10;64.20;;;;;;5103874;27;45324;-73
2021/12/20 12:28:15;;;;;;;6.78;1.85;;;16.20;64.70;;;;;;5099755;27;45405;-73
2021/12/20 12:30:45;;;;;;;5.22;1.80;;;16.20;64.70;;;;;;5097238;27;45358;-73
2021/12/20 12:33:33;;;;;;;5.18;1.40;;;16.30;65.90;;;;;;5094392;27;46872;-73
2021/12/20 12:36:10;;;;;;;4.25;1.42;;;16.40;66.00;;;;;;5099092;27;45472;-73
2021/12/20 12:38:51;;;;;;;4.97;1.50;;;16.40;65.50;;;;;;5107737;27;45979;-73
2021/12/20 12:41:22;;;;;;;3.83;1.35;;;16.40;63.80;;;;;;5104096;27;45661;-73
2021/12/20 12:44:02;;;;;;;4.93;1.50;;;16.40;63.60;;;;;;5091180;27;46978;-73
2021/12/20 12:47:08;;;;;;;3.13;0.95;;;16.40;63.10;;;;;;5092132;27;45484;-73
2021/12/20 12:49:47;;;;;;;3.25;1.33;;;16.40;63.10;;;;;;5099991;27;48077;-73
2021/12/20 12:52:38;;;;;;;3.40;1.30;;;16.40;62.90;;;;;;5104202;27;45324;-73
2021/12/20 12:55:25;;;;;;;3.28;1.20;;;16.40;61.70;;;;;;5085921;27;45409;-73
2021/12/20 12:57:52;;;;;;;3.45;1.40;;;16.40;62.50;;;;;;5106316;27;45171;-73
2021/12/20 13:00:32;;;;;;;5.03;1.35;;;16.40;61.80;;;;;;5104485;27;46193;-73
2021/12/20 13:03:11;;;;;;;5.10;1.50;;;16.50;62.10;;;;;;5104168;27;45222;-73
2021/12/20 13:05:38;;;;;;;3.60;1.00;;;16.50;63.70;;;;;;5087982;27;45182;-73
2021/12/20 13:08:05;;;;;;;2.58;0.98;;;16.50;62.60;;;;;;5091700;27;45278;-73